Terminal Aerodrome Forecast
Issued by NWS Charleston, SC

Home | Current Version | Previous Version | Text Only | Print | Product List | Glossary On
Versions: 1 2 3 4 5 6 7 8 9 10 11 12
000
FTUS42 KCHS 212323
TAFCHS
TAF
KCHS 212323Z 2200/2224 08004KT P6SM FEW040 BKN200
     FM221400 07008KT P6SM SCT040
     FM222000 12009KT P6SM VCSH SCT035 BKN050=

USA.gov is the U.S. government's official web portal to all federal, state and local government web resources and services.